Time;durP1;ratioP1;P1;durP2;ratioP2;P2;SDS_P1;SDS_P2;PMS_P1;PMS_P2;Temp;Humidity;BMP_temperature;BMP_pressure;BME280_temperature;BME280_humidity;BME280_pressure;Samples;Min_cycle;Max_cycle;Signal;HPM_P1;HPM_P2
2022/10/05 00:02:27;;;;;;;25.55;13.88;;;;;;;;;;5036464;28;20025;-69
2022/10/05 00:04:54;;;;;;;27.70;14.50;;;;;;;;;;5036242;28;20128;-71
2022/10/05 00:07:20;;;;;;;30.80;14.70;;;;;;;;;;5036114;28;20434;-71
2022/10/05 00:09:56;;;;;;;25.17;14.27;;;;;;;;;;5036549;28;20033;-71
2022/10/05 00:12:22;;;;;;;19.60;12.75;;;;;;;;;;5051791;28;20053;-70
2022/10/05 00:14:49;;;;;;;17.92;11.55;;;;;;;;;;5036597;28;20424;-71
2022/10/05 00:17:22;;;;;;;17.80;11.73;;;;;;;;;;5040898;28;20045;-72
2022/10/05 00:19:51;;;;;;;26.85;13.45;;;;;;;;;;5056266;28;20367;-72
2022/10/05 00:22:19;;;;;;;31.35;14.88;;;;;;;;;;5054903;28;20056;-72
2022/10/05 00:24:45;;;;;;;25.60;14.25;;;;;;;;;;5056291;28;20029;-72
2022/10/05 00:27:18;;;;;;;25.70;14.25;;;;;;;;;;5056053;28;20062;-72
2022/10/05 00:29:44;;;;;;;27.15;13.52;;;;;;;;;;5054649;28;20032;-73
2022/10/05 00:32:10;;;;;;;28.30;13.10;;;;;;;;;;5056032;28;20102;-72
2022/10/05 00:34:35;;;;;;;21.20;12.35;;;;;;;;;;5055822;28;20061;-72
2022/10/05 00:37:02;;;;;;;23.83;13.27;;;;;;;;;;5054796;28;20025;-71
2022/10/05 00:39:28;;;;;;;25.00;13.57;;;;;;;;;;5056020;28;20111;-71
2022/10/05 00:42:00;;;;;;;22.13;13.48;;;;;;;;;;5055808;28;20017;-72
2022/10/05 00:44:32;;;;;;;21.10;13.50;;;;;;;;;;5037761;28;20564;-71
2022/10/05 00:47:06;;;;;;;27.40;13.25;;;;;;;;;;5056182;28;20033;-72
2022/10/05 00:49:53;;;;;;;26.40;13.98;;;;;;;;;;5054903;28;20452;-70
2022/10/05 00:52:39;;;;;;;15.55;10.68;;;;;;;;;;5055670;28;20121;-71
2022/10/05 00:55:11;;;;;;;16.05;10.15;;;;;;;;;;5054773;28;20470;-71
2022/10/05 00:57:40;;;;;;;18.88;10.43;;;;;;;;;;5055751;28;20056;-72
2022/10/05 01:00:07;;;;;;;17.80;10.75;;;;;;;;;;5054485;28;20059;-72
2022/10/05 01:02:45;;;;;;;16.25;11.25;;;;;;;;;;5056169;28;20029;-71
2022/10/05 01:05:18;;;;;;;23.48;14.23;;;;;;;;;;5055291;28;20060;-69
2022/10/05 01:07:44;;;;;;;28.65;13.80;;;;;;;;;;5055264;28;20037;-70
2022/10/05 01:10:09;;;;;;;24.48;13.60;;;;;;;;;;5053929;28;20035;-72
2022/10/05 01:12:54;;;;;;;23.10;12.38;;;;;;;;;;5055136;28;20368;-73
2022/10/05 01:15:26;;;;;;;22.30;13.23;;;;;;;;;;5054992;28;20108;-73
2022/10/05 01:17:58;;;;;;;21.08;12.50;;;;;;;;;;5050192;28;20050;-73
2022/10/05 01:20:33;;;;;;;22.45;12.75;;;;;;;;;;5050276;28;20029;-73
2022/10/05 01:23:01;;;;;;;23.25;14.48;;;;;;;;;;5050662;28;20352;-72
2022/10/05 01:25:50;;;;;;;24.65;13.65;;;;;;;;;;5034971;28;20031;-73
2022/10/05 01:28:15;;;;;;;25.40;13.82;;;;;;;;;;5024457;28;20046;-73
2022/10/05 01:30:56;;;;;;;22.42;13.38;;;;;;;;;;5050150;28;20029;-73
2022/10/05 01:33:27;;;;;;;20.70;12.38;;;;;;;;;;5035124;28;20030;-73
2022/10/05 01:35:53;;;;;;;18.67;12.70;;;;;;;;;;5050375;28;20464;-73
2022/10/05 01:38:37;;;;;;;20.95;12.90;;;;;;;;;;5050822;28;20021;-73
2022/10/05 01:41:07;;;;;;;20.50;12.80;;;;;;;;;;5033664;28;20030;-73
2022/10/05 01:43:37;;;;;;;22.52;13.63;;;;;;;;;;5050275;28;20029;-73
2022/10/05 01:46:17;;;;;;;18.45;13.38;;;;;;;;;;5049876;28;20034;-73
2022/10/05 01:48:46;;;;;;;25.98;14.10;;;;;;;;;;5034764;28;20061;-72
2022/10/05 01:51:19;;;;;;;23.25;14.35;;;;;;;;;;5049805;28;20018;-73
2022/10/05 01:53:56;;;;;;;19.42;13.27;;;;;;;;;;5034755;28;20059;-72
2022/10/05 01:56:41;;;;;;;21.63;14.30;;;;;;;;;;5049697;28;20061;-73
2022/10/05 01:59:20;;;;;;;22.90;14.32;;;;;;;;;;5033051;28;20079;-73
2022/10/05 02:01:52;;;;;;;24.38;14.00;;;;;;;;;;5034813;28;20080;-72
2022/10/05 02:04:21;;;;;;;22.23;14.60;;;;;;;;;;5034466;28;20029;-73
2022/10/05 02:06:47;;;;;;;25.98;14.85;;;;;;;;;;5049526;28;20475;-74
2022/10/05 02:09:17;;;;;;;22.85;14.23;;;;;;;;;;5049535;28;20120;-74
2022/10/05 02:11:44;;;;;;;19.48;14.05;;;;;;;;;;5034304;28;20017;-71
2022/10/05 02:14:11;;;;;;;22.25;13.90;;;;;;;;;;5032723;28;20116;-72
2022/10/05 02:16:39;;;;;;;23.40;14.43;;;;;;;;;;5032889;28;20013;-71
2022/10/05 02:19:20;;;;;;;22.95;14.45;;;;;;;;;;5053485;28;20037;-71
2022/10/05 02:21:47;;;;;;;18.70;13.23;;;;;;;;;;5053977;28;20029;-72
2022/10/05 02:24:25;;;;;;;24.63;14.25;;;;;;;;;;5036014;28;20059;-71
2022/10/05 02:26:52;;;;;;;21.23;13.70;;;;;;;;;;5052514;28;20446;-71
2022/10/05 02:29:18;;;;;;;20.15;13.82;;;;;;;;;;5052628;28;20021;-72
2022/10/05 02:31:44;;;;;;;21.45;13.43;;;;;;;;;;5052487;28;20024;-73
2022/10/05 02:34:39;;;;;;;25.77;14.48;;;;;;;;;;5052950;28;20029;-73
2022/10/05 02:37:38;;;;;;;24.70;15.20;;;;;;;;;;5020559;28;20044;-69
2022/10/05 02:40:04;;;;;;;23.27;13.98;;;;;;;;;;5052314;28;20071;-70
2022/10/05 02:42:30;;;;;;;25.75;14.13;;;;;;;;;;5052309;28;20067;-71
2022/10/05 02:45:11;;;;;;;20.20;13.77;;;;;;;;;;5035713;28;20033;-70
2022/10/05 02:47:51;;;;;;;20.25;12.85;;;;;;;;;;5052963;28;20103;-69
2022/10/05 02:50:39;;;;;;;16.83;12.50;;;;;;;;;;5052490;28;20552;-71
2022/10/05 02:53:11;;;;;;;18.42;12.75;;;;;;;;;;5052135;28;20052;-71
2022/10/05 02:55:39;;;;;;;20.10;12.45;;;;;;;;;;5052102;28;20155;-71
2022/10/05 02:58:08;;;;;;;17.42;11.98;;;;;;;;;;5052965;28;20017;-71
2022/10/05 03:00:37;;;;;;;17.60;12.05;;;;;;;;;;5035610;28;20021;-72
2022/10/05 03:03:21;;;;;;;17.77;12.27;;;;;;;;;;5053717;28;20016;-73
2022/10/05 03:05:53;;;;;;;15.93;11.40;;;;;;;;;;5035469;28;20056;-72
2022/10/05 03:08:33;;;;;;;18.50;12.43;;;;;;;;;;5052036;28;20083;-73
2022/10/05 03:10:59;;;;;;;16.33;12.13;;;;;;;;;;5052081;28;20394;-73
2022/10/05 03:13:29;;;;;;;17.38;11.68;;;;;;;;;;5052474;28;20025;-73
2022/10/05 03:16:06;;;;;;;17.05;11.68;;;;;;;;;;5051932;28;20036;-73
2022/10/05 03:18:53;;;;;;;19.63;12.55;;;;;;;;;;5051599;28;20064;-73
2022/10/05 03:21:35;;;;;;;17.15;11.27;;;;;;;;;;5051957;28;20029;-74
2022/10/05 03:24:00;;;;;;;;;;;;;;;;;;5052365;28;20032;-73
2022/10/05 03:26:43;;;;;;;14.43;10.75;;;;;;;;;;5051928;28;20270;-72
2022/10/05 03:29:18;;;;;;;17.30;11.25;;;;;;;;;;5051856;28;20029;-74
2022/10/05 03:32:04;;;;;;;16.40;11.43;;;;;;;;;;5035223;28;20487;-74
2022/10/05 03:34:35;;;;;;;17.08;11.30;;;;;;;;;;5035678;28;20033;-74
2022/10/05 03:37:10;;;;;;;17.58;11.20;;;;;;;;;;5051780;28;20116;-72
2022/10/05 03:39:45;;;;;;;22.63;11.88;;;;;;;;;;5052266;28;20376;-73
2022/10/05 03:42:17;;;;;;;17.40;10.93;;;;;;;;;;5037863;28;20029;-74
2022/10/05 03:44:42;;;;;;;14.48;11.05;;;;;;;;;;5056801;28;20483;-73
2022/10/05 03:47:24;;;;;;;17.73;11.50;;;;;;;;;;5055765;28;20116;-73
2022/10/05 03:50:20;;;;;;;19.02;11.68;;;;;;;;;;5038784;28;20029;-73
2022/10/05 03:53:12;;;;;;;15.70;11.05;;;;;;;;;;5018074;28;20045;-72
2022/10/05 03:55:37;;;;;;;15.25;10.35;;;;;;;;;;5033974;28;20052;-71
2022/10/05 03:58:11;;;;;;;13.38;10.30;;;;;;;;;;5055304;28;20021;-72
2022/10/05 04:00:38;;;;;;;15.48;10.70;;;;;;;;;;5056636;28;20037;-72
2022/10/05 04:03:06;;;;;;;16.83;10.32;;;;;;;;;;5055335;28;20024;-72
2022/10/05 04:05:44;;;;;;;18.23;11.00;;;;;;;;;;5056711;28;20033;-72
2022/10/05 04:08:16;;;;;;;15.18;11.07;;;;;;;;;;5056819;28;20041;-72
2022/10/05 04:10:53;;;;;;;14.43;10.00;;;;;;;;;;5038269;28;20091;-70
2022/10/05 04:13:30;;;;;;;16.08;10.38;;;;;;;;;;5056723;28;20463;-71
2022/10/05 04:15:59;;;;;;;15.40;11.02;;;;;;;;;;5055465;28;20033;-71
2022/10/05 04:18:32;;;;;;;16.25;10.70;;;;;;;;;;5054754;28;20037;-71
2022/10/05 04:21:07;;;;;;;15.90;11.18;;;;;;;;;;5056243;28;20387;-71
2022/10/05 04:23:56;;;;;;;13.25;9.93;;;;;;;;;;5056798;28;20032;-71
2022/10/05 04:26:34;;;;;;;13.15;9.50;;;;;;;;;;5038355;28;20032;-70
2022/10/05 04:29:05;;;;;;;13.48;8.85;;;;;;;;;;5038045;28;20029;-71
2022/10/05 04:31:49;;;;;;;13.73;9.95;;;;;;;;;;5037797;28;20029;-72
2022/10/05 04:34:27;;;;;;;14.98;10.27;;;;;;;;;;5021406;28;20025;-72
2022/10/05 04:36:57;;;;;;;15.65;9.63;;;;;;;;;;5056390;28;20435;-72
2022/10/05 04:39:31;;;;;;;13.70;9.63;;;;;;;;;;5036979;28;20083;-72
2022/10/05 04:42:18;;;;;;;14.32;9.38;;;;;;;;;;5054420;28;20075;-72
2022/10/05 04:44:54;;;;;;;17.13;10.25;;;;;;;;;;5037947;28;20486;-73
2022/10/05 04:47:32;;;;;;;12.85;9.77;;;;;;;;;;5038238;28;20037;-73
2022/10/05 04:50:07;;;;;;;16.13;9.52;;;;;;;;;;5055184;28;20032;-73
2022/10/05 04:52:40;;;;;;;15.80;9.40;;;;;;;;;;5037320;28;20032;-73
2022/10/05 04:55:24;;;;;;;14.85;9.88;;;;;;;;;;5036509;28;20028;-73
2022/10/05 04:57:53;;;;;;;16.20;10.18;;;;;;;;;;5051477;28;20024;-72
2022/10/05 05:00:18;;;;;;;21.63;10.52;;;;;;;;;;5051097;28;20121;-72
2022/10/05 05:02:47;;;;;;;16.48;9.82;;;;;;;;;;5051760;28;20108;-71
2022/10/05 05:05:42;;;;;;;18.88;10.73;;;;;;;;;;5052501;28;20463;-73
2022/10/05 05:08:26;;;;;;;17.15;9.90;;;;;;;;;;4949874;28;20043;-72
2022/10/05 05:10:57;;;;;;;11.93;8.00;;;;;;;;;;5036231;28;20052;-73
2022/10/05 05:13:23;;;;;;;17.52;10.35;;;;;;;;;;5036214;28;20037;-72
2022/10/05 05:15:52;;;;;;;17.60;10.77;;;;;;;;;;5052676;28;20029;-72
2022/10/05 05:18:17;;;;;;;18.20;9.65;;;;;;;;;;5049056;28;20052;-71
2022/10/05 05:20:59;;;;;;;15.38;9.27;;;;;;;;;;5032864;28;20029;-73
2022/10/05 05:23:44;;;;;;;14.00;9.88;;;;;;;;;;5032767;28;20029;-72
2022/10/05 05:26:16;;;;;;;13.85;9.35;;;;;;;;;;5032321;28;20029;-72
2022/10/05 05:28:45;;;;;;;12.45;9.32;;;;;;;;;;5032107;28;20040;-72
2022/10/05 05:31:15;;;;;;;11.93;9.60;;;;;;;;;;5033763;28;20027;-72
2022/10/05 05:33:53;;;;;;;12.40;8.63;;;;;;;;;;5049029;28;20034;-72
2022/10/05 05:36:20;;;;;;;11.95;9.05;;;;;;;;;;5032345;28;20025;-72
2022/10/05 05:38:59;;;;;;;13.68;9.23;;;;;;;;;;5032666;28;20021;-72
2022/10/05 05:41:34;;;;;;;13.85;10.02;;;;;;;;;;5032317;28;20049;-72
2022/10/05 05:44:03;;;;;;;13.00;9.05;;;;;;;;;;5032211;28;20057;-72
2022/10/05 05:46:31;;;;;;;13.00;9.02;;;;;;;;;;5049131;28;20476;-72
2022/10/05 05:48:57;;;;;;;12.40;7.72;;;;;;;;;;5034792;28;20107;-71
2022/10/05 05:51:38;;;;;;;13.65;9.82;;;;;;;;;;5049707;28;20480;-72
2022/10/05 05:54:15;;;;;;;14.90;10.82;;;;;;;;;;5033613;28;20108;-71
2022/10/05 05:56:48;;;;;;;18.73;13.13;;;;;;;;;;5031083;28;20542;-72
2022/10/05 05:59:21;;;;;;;21.15;13.45;;;;;;;;;;5034678;28;20072;-72
2022/10/05 06:01:51;;;;;;;25.23;15.55;;;;;;;;;;5049673;28;20034;-72
2022/10/05 06:04:34;;;;;;;21.77;12.75;;;;;;;;;;5049299;28;20091;-72
2022/10/05 06:07:00;;;;;;;22.48;14.63;;;;;;;;;;5032914;28;20037;-72
2022/10/05 06:09:36;;;;;;;20.35;14.32;;;;;;;;;;5034480;28;20055;-72
2022/10/05 06:12:18;;;;;;;29.25;13.73;;;;;;;;;;5034649;28;20079;-71
2022/10/05 06:14:49;;;;;;;21.95;13.68;;;;;;;;;;5049425;28;20033;-71
2022/10/05 06:17:14;;;;;;;;;;;;;;;;;;5035696;28;20026;-71
2022/10/05 06:19:41;;;;;;;19.17;11.00;;;;;;;;;;5052707;28;19915;-71
2022/10/05 06:22:40;;;;;;;16.08;11.00;;;;;;;;;;5052827;28;20094;-71
2022/10/05 06:25:12;;;;;;;13.85;9.90;;;;;;;;;;4983464;28;20418;-72
2022/10/05 06:27:58;;;;;;;14.88;9.98;;;;;;;;;;5036247;28;20032;-72
2022/10/05 06:30:26;;;;;;;15.00;10.15;;;;;;;;;;5052515;28;20021;-71
2022/10/05 06:33:16;;;;;;;12.70;8.60;;;;;;;;;;5053782;28;20047;-71
2022/10/05 06:35:42;;;;;;;;;;;;;;;;;;5052851;28;20029;-71
2022/10/05 06:38:13;;;;;;;9.98;7.10;;;;;;;;;;5019349;28;19912;-71
2022/10/05 06:40:58;;;;;;;12.10;7.20;;;;;;;;;;5036401;28;20406;-71
2022/10/05 06:43:26;;;;;;;9.95;5.70;;;;;;;;;;5053647;28;20083;-71
2022/10/05 06:46:23;;;;;;;8.65;5.97;;;;;;;;;;5053168;28;20028;-71
2022/10/05 06:49:25;;;;;;;9.65;6.15;;;;;;;;;;5043575;28;20169;-71
2022/10/05 06:52:17;;;;;;;7.35;5.22;;;;;;;;;;5029944;28;20094;-71
2022/10/05 06:54:47;;;;;;;11.68;6.90;;;;;;;;;;5035527;28;20499;-71
2022/10/05 06:57:29;;;;;;;10.32;7.25;;;;;;;;;;5035666;28;20037;-72
2022/10/05 07:00:00;;;;;;;10.45;7.38;;;;;;;;;;5035847;28;20074;-72
2022/10/05 07:02:39;;;;;;;10.48;7.32;;;;;;;;;;5035574;28;20120;-71
2022/10/05 07:05:22;;;;;;;8.98;6.18;;;;;;;;;;5052085;28;20467;-72
2022/10/05 07:07:54;;;;;;;7.78;6.70;;;;;;;;;;5019101;28;20031;-71
2022/10/05 07:10:32;;;;;;;9.55;6.72;;;;;;;;;;5053269;28;20037;-70
2022/10/05 07:13:05;;;;;;;8.60;6.60;;;;;;;;;;5035446;28;20029;-72
2022/10/05 07:15:30;;;;;;;9.15;6.97;;;;;;;;;;5051961;28;20028;-71
2022/10/05 07:18:04;;;;;;;8.98;6.28;;;;;;;;;;5054840;28;20411;-71
2022/10/05 07:20:39;;;;;;;9.98;6.18;;;;;;;;;;5055988;28;20021;-71
2022/10/05 07:23:12;;;;;;;10.35;6.03;;;;;;;;;;5039279;28;20128;-71
2022/10/05 07:25:38;;;;;;;7.93;5.72;;;;;;;;;;5055940;28;20039;-71
2022/10/05 07:28:07;;;;;;;8.50;6.47;;;;;;;;;;5055897;28;20013;-71
2022/10/05 07:30:40;;;;;;;7.45;5.78;;;;;;;;;;5039141;28;20036;-71
2022/10/05 07:33:10;;;;;;;9.43;5.70;;;;;;;;;;5039206;28;20028;-71
2022/10/05 07:38:51;;;;;;;11.43;6.28;;;;;;;;;;5038227;28;20033;-71
2022/10/05 07:41:35;;;;;;;8.73;6.25;;;;;;;;;;5021215;28;20029;-72
2022/10/05 07:44:24;;;;;;;6.10;5.50;;;;;;;;;;5055748;28;20036;-71
2022/10/05 07:46:52;;;;;;;6.75;5.72;;;;;;;;;;5055770;28;20067;-72
2022/10/05 07:49:51;;;;;;;8.05;5.07;;;;;;;;;;5022475;28;20482;-71
2022/10/05 07:52:31;;;;;;;6.35;5.07;;;;;;;;;;5011766;28;20040;-71
2022/10/05 07:55:17;;;;;;;8.80;6.65;;;;;;;;;;5036696;28;20453;-72
2022/10/05 07:58:04;;;;;;;8.88;6.35;;;;;;;;;;5036733;28;20025;-72
2022/10/05 08:00:40;;;;;;;9.23;5.05;;;;;;;;;;5038496;28;20025;-72
2022/10/05 08:03:10;;;;;;;7.93;5.65;;;;;;;;;;5038826;28;20029;-71
2022/10/05 08:05:37;;;;;;;7.55;5.38;;;;;;;;;;5056703;28;20032;-71
2022/10/05 08:08:11;;;;;;;7.35;4.60;;;;;;;;;;5056460;28;20421;-71
2022/10/05 08:10:58;;;;;;;5.95;4.07;;;;;;;;;;5038941;28;20264;-70
2022/10/05 08:13:30;;;;;;;4.70;3.72;;;;;;;;;;5074928;22;20057;-72
2022/10/05 08:16:01;;;;;;;6.25;3.92;;;;;;;;;;5018449;28;20095;-73
2022/10/05 08:18:36;;;;;;;5.95;3.75;;;;;;;;;;5036807;28;20032;-74
2022/10/05 08:21:04;;;;;;;4.70;3.35;;;;;;;;;;5018596;28;20032;-73
2022/10/05 08:23:45;;;;;;;5.90;3.60;;;;;;;;;;5018496;28;20021;-72
2022/10/05 08:26:16;;;;;;;3.88;3.58;;;;;;;;;;5036657;28;20034;-73
2022/10/05 08:28:49;;;;;;;3.58;3.17;;;;;;;;;;5035956;28;20040;-73
2022/10/05 08:31:20;;;;;;;5.03;3.35;;;;;;;;;;5036040;28;20426;-72
2022/10/05 08:34:06;;;;;;;6.15;3.38;;;;;;;;;;5018662;28;20061;-74
2022/10/05 08:36:38;;;;;;;4.50;3.47;;;;;;;;;;5035756;28;20049;-72
2022/10/05 08:39:08;;;;;;;4.35;3.67;;;;;;;;;;5035981;28;20545;-74
2022/10/05 08:41:33;;;;;;;3.05;2.80;;;;;;;;;;5035794;28;20029;-74
2022/10/05 08:44:17;;;;;;;4.18;3.42;;;;;;;;;;5036447;28;20048;-74
2022/10/05 08:46:58;;;;;;;5.70;3.88;;;;;;;;;;5035951;28;20034;-73
2022/10/05 08:49:36;;;;;;;5.20;3.55;;;;;;;;;;5035964;28;20376;-74
2022/10/05 08:52:01;;;;;;;3.55;3.08;;;;;;;;;;5018496;28;20029;-74
2022/10/05 08:54:26;;;;;;;4.57;2.55;;;;;;;;;;5035527;28;20036;-72
2022/10/05 08:57:05;;;;;;;4.32;3.30;;;;;;;;;;5035820;28;20103;-73
2022/10/05 08:59:33;;;;;;;4.70;2.65;;;;;;;;;;5035480;28;20021;-74
2022/10/05 09:01:59;;;;;;;4.65;3.25;;;;;;;;;;5035742;28;20481;-74
2022/10/05 09:04:45;;;;;;;5.68;3.15;;;;;;;;;;5035691;28;20383;-74
2022/10/05 09:07:18;;;;;;;2.63;2.42;;;;;;;;;;4978581;28;20033;-73
2022/10/05 09:09:44;;;;;;;2.67;2.47;;;;;;;;;;5017938;28;20033;-73
2022/10/05 09:12:22;;;;;;;5.30;2.60;;;;;;;;;;5017456;28;20487;-72
2022/10/05 09:14:57;;;;;;;2.63;2.42;;;;;;;;;;5035083;28;20045;-74
2022/10/05 09:17:45;;;;;;;4.40;2.17;;;;;;;;;;5035730;28;20021;-74
2022/10/05 09:20:34;;;;;;;2.15;1.95;;;;;;;;;;5024636;28;20040;-74
2022/10/05 09:23:15;;;;;;;2.78;2.53;;;;;;;;;;5035629;28;20113;-74
2022/10/05 09:25:46;;;;;;;4.22;2.45;;;;;;;;;;5017408;28;20025;-74
2022/10/05 09:28:23;;;;;;;6.22;2.70;;;;;;;;;;5034954;28;20041;-73
2022/10/05 09:30:55;;;;;;;2.83;2.42;;;;;;;;;;5017855;28;20029;-74
2022/10/05 09:33:29;;;;;;;5.25;2.58;;;;;;;;;;5017606;28;20033;-74
2022/10/05 09:36:01;;;;;;;5.43;2.75;;;;;;;;;;5034995;28;20025;-73
2022/10/05 09:38:26;;;;;;;3.17;2.20;;;;;;;;;;5034750;28;20463;-73
2022/10/05 09:40:58;;;;;;;1.65;1.48;;;;;;;;;;5034466;28;20025;-73
2022/10/05 09:43:44;;;;;;;5.43;2.53;;;;;;;;;;5034718;28;20032;-73
2022/10/05 09:46:12;;;;;;;2.38;2.17;;;;;;;;;;5017050;28;20064;-73
2022/10/05 09:48:38;;;;;;;4.63;2.38;;;;;;;;;;5017226;28;20026;-74
2022/10/05 09:51:03;;;;;;;3.75;2.47;;;;;;;;;;5016796;28;20373;-74
2022/10/05 09:53:33;;;;;;;4.53;2.27;;;;;;;;;;5034641;28;20025;-74
2022/10/05 09:56:07;;;;;;;3.58;2.67;;;;;;;;;;5017076;28;20303;-73
2022/10/05 09:58:36;;;;;;;4.78;2.25;;;;;;;;;;5034581;28;20032;-74
2022/10/05 10:01:11;;;;;;;3.70;2.45;;;;;;;;;;5034369;28;20021;-74
2022/10/05 10:03:57;;;;;;;2.70;2.50;;;;;;;;;;5034597;28;20044;-74
2022/10/05 10:06:25;;;;;;;4.32;2.38;;;;;;;;;;5034793;28;20037;-74
2022/10/05 10:08:51;;;;;;;3.80;2.53;;;;;;;;;;5034796;28;20349;-73
2022/10/05 10:11:18;;;;;;;2.70;2.38;;;;;;;;;;5034451;28;20045;-74
2022/10/05 10:13:50;;;;;;;3.53;2.70;;;;;;;;;;5016598;28;20120;-74
2022/10/05 10:16:16;;;;;;;3.53;2.50;;;;;;;;;;5016724;28;20029;-72
2022/10/05 10:18:56;;;;;;;2.50;2.30;;;;;;;;;;5034077;28;20014;-73
2022/10/05 10:21:24;;;;;;;2.65;2.20;;;;;;;;;;5034285;28;20276;-74
2022/10/05 10:23:59;;;;;;;2.55;2.35;;;;;;;;;;5034710;28;20092;-74
2022/10/05 10:26:41;;;;;;;2.35;2.25;;;;;;;;;;5034306;28;20053;-73
2022/10/05 10:29:29;;;;;;;4.40;2.95;;;;;;;;;;5016995;28;20043;-73
2022/10/05 10:32:04;;;;;;;2.60;2.40;;;;;;;;;;5034170;28;20427;-73
2022/10/05 10:34:41;;;;;;;5.18;2.50;;;;;;;;;;5034003;28;20072;-73
2022/10/05 10:37:32;;;;;;;2.50;2.22;;;;;;;;;;5016092;28;20033;-73
2022/10/05 10:39:57;;;;;;;3.60;2.28;;;;;;;;;;5033931;28;20036;-73
2022/10/05 10:42:27;;;;;;;4.82;2.13;;;;;;;;;;5033791;28;20022;-74
2022/10/05 10:44:52;;;;;;;2.75;1.92;;;;;;;;;;5033812;28;20033;-73
2022/10/05 10:47:33;;;;;;;3.60;2.40;;;;;;;;;;5033680;28;20376;-73
2022/10/05 10:50:17;;;;;;;4.85;2.50;;;;;;;;;;5034146;28;20464;-74
2022/10/05 10:53:08;;;;;;;2.50;2.05;;;;;;;;;;5033106;28;20029;-74
2022/10/05 10:55:40;;;;;;;2.45;1.92;;;;;;;;;;5033783;28;20116;-74
2022/10/05 10:58:24;;;;;;;2.10;1.90;;;;;;;;;;5015832;28;20218;-70
2022/10/05 11:01:08;;;;;;;1.85;1.75;;;;;;;;;;5033544;28;20033;-74
2022/10/05 11:03:41;;;;;;;2.25;1.85;;;;;;;;;;5033420;28;20079;-72
2022/10/05 11:06:16;;;;;;;2.05;1.60;;;;;;;;;;5033727;28;20043;-74
2022/10/05 11:09:02;;;;;;;1.45;1.30;;;;;;;;;;5034267;28;20029;-73
2022/10/05 11:11:37;;;;;;;1.45;1.35;;;;;;;;;;5016210;28;20037;-73
2022/10/05 11:14:22;;;;;;;2.10;1.80;;;;;;;;;;5060832;22;20048;-70
2022/10/05 11:17:03;;;;;;;1.90;1.80;;;;;;;;;;5053520;28;20041;-72
2022/10/05 11:19:47;;;;;;;1.20;1.10;;;;;;;;;;5053852;28;20029;-72
2022/10/05 11:22:31;;;;;;;1.67;1.58;;;;;;;;;;5053233;28;20029;-73
2022/10/05 11:25:19;;;;;;;1.88;1.65;;;;;;;;;;5053764;28;20029;-74
2022/10/05 11:27:54;;;;;;;3.63;1.83;;;;;;;;;;5053401;28;20044;-73
2022/10/05 11:30:25;;;;;;;2.65;1.77;;;;;;;;;;5035952;28;20032;-74
2022/10/05 11:33:10;;;;;;;4.53;1.92;;;;;;;;;;5053201;28;20474;-73
2022/10/05 11:35:48;;;;;;;2.22;1.73;;;;;;;;;;5053592;28;20036;-73
2022/10/05 11:38:47;;;;;;;1.85;1.67;;;;;;;;;;5035257;28;20116;-73
2022/10/05 11:41:12;;;;;;;2.25;1.92;;;;;;;;;;5009590;28;20045;-73
2022/10/05 11:43:46;;;;;;;2.42;1.90;;;;;;;;;;5053330;28;20021;-74
2022/10/05 11:46:15;;;;;;;2.47;1.95;;;;;;;;;;5053535;28;20037;-74
2022/10/05 11:48:48;;;;;;;2.67;2.08;;;;;;;;;;5053026;28;20032;-73
2022/10/05 11:51:20;;;;;;;2.78;1.80;;;;;;;;;;5053497;28;20045;-74
2022/10/05 11:54:04;;;;;;;1.98;1.83;;;;;;;;;;5053107;28;20094;-73
2022/10/05 11:56:33;;;;;;;2.78;1.70;;;;;;;;;;5051698;28;20024;-73
2022/10/05 11:59:04;;;;;;;1.65;1.55;;;;;;;;;;5053228;28;20033;-71
2022/10/05 12:01:29;;;;;;;;;;;;;;;;;;5052154;28;20065;-71
2022/10/05 12:04:01;;;;;;;4.72;1.92;;;;;;;;;;5055548;28;20371;-71
2022/10/05 12:06:27;;;;;;;2.42;1.83;;;;;;;;;;5038517;28;20028;-71
2022/10/05 12:09:07;;;;;;;5.45;2.10;;;;;;;;;;5056689;28;20459;-71
2022/10/05 12:11:35;;;;;;;2.17;1.88;;;;;;;;;;5056419;28;20459;-70
2022/10/05 12:14:06;;;;;;;2.00;1.85;;;;;;;;;;5056208;28;20110;-70
2022/10/05 12:16:31;;;;;;;;;;;;;;;;;;5038813;28;20075;-70
2022/10/05 12:19:27;;;;;;;2.50;1.63;;;;;;;;;;5056335;28;19904;-71
2022/10/05 12:22:02;;;;;;;1.27;0.75;;;;;;;;;;5054224;28;20056;-70
2022/10/05 12:24:33;;;;;;;2.22;1.90;;;;;;;;;;5054669;28;20471;-70
2022/10/05 12:27:14;;;;;;;1.80;1.45;;;;;;;;;;5056110;28;20074;-71
2022/10/05 12:29:42;;;;;;;1.77;1.67;;;;;;;;;;5055920;28;20037;-71
2022/10/05 12:32:08;;;;;;;2.00;1.80;;;;;;;;;;5055096;28;20029;-71
2022/10/05 12:34:33;;;;;;;1.92;1.40;;;;;;;;;;5056134;28;20037;-70
2022/10/05 12:37:08;;;;;;;2.10;1.33;;;;;;;;;;5054977;28;20110;-70
2022/10/05 12:39:33;;;;;;;2.42;1.67;;;;;;;;;;5055858;28;20025;-70
2022/10/05 12:41:59;;;;;;;2.17;1.55;;;;;;;;;;5054498;28;20028;-69
2022/10/05 12:44:42;;;;;;;2.55;1.63;;;;;;;;;;5056037;28;20040;-70
2022/10/05 12:47:26;;;;;;;2.72;1.58;;;;;;;;;;5055984;28;20033;-71
2022/10/05 12:49:52;;;;;;;4.43;1.80;;;;;;;;;;5037763;28;20111;-70
2022/10/05 12:52:20;;;;;;;3.65;1.90;;;;;;;;;;5055605;28;20068;-71
2022/10/05 12:54:52;;;;;;;1.38;1.23;;;;;;;;;;5055508;28;20060;-71
2022/10/05 12:57:31;;;;;;;1.92;1.83;;;;;;;;;;5055747;28;20175;-70
2022/10/05 13:00:23;;;;;;;1.67;1.58;;;;;;;;;;5055441;28;20486;-71
2022/10/05 13:02:52;;;;;;;3.25;1.55;;;;;;;;;;5051534;28;20045;-71
2022/10/05 13:05:21;;;;;;;2.13;1.80;;;;;;;;;;5055551;28;20082;-70
2022/10/05 13:07:59;;;;;;;4.77;1.70;;;;;;;;;;5055294;28;20029;-71
2022/10/05 13:10:33;;;;;;;2.40;1.77;;;;;;;;;;5055233;28;20037;-70
2022/10/05 13:13:05;;;;;;;5.85;2.00;;;;;;;;;;5055027;28;20395;-70
2022/10/05 13:15:47;;;;;;;4.60;2.22;;;;;;;;;;5054359;28;20486;-69
2022/10/05 13:18:12;;;;;;;3.25;1.92;;;;;;;;;;5037399;28;20061;-70
2022/10/05 13:20:43;;;;;;;3.45;2.00;;;;;;;;;;5055149;28;20490;-71
2022/10/05 13:23:11;;;;;;;2.05;1.90;;;;;;;;;;5055369;28;20021;-70
2022/10/05 13:25:44;;;;;;;2.58;1.90;;;;;;;;;;5054813;28;20048;-70
2022/10/05 13:28:14;;;;;;;3.05;1.83;;;;;;;;;;5052087;28;20021;-71
2022/10/05 13:30:41;;;;;;;1.77;1.65;;;;;;;;;;5036893;28;20025;-70
2022/10/05 13:33:13;;;;;;;3.40;2.00;;;;;;;;;;5055039;28;20017;-69
2022/10/05 13:35:52;;;;;;;2.40;2.15;;;;;;;;;;5054936;28;20029;-69
2022/10/05 13:38:17;;;;;;;2.67;1.85;;;;;;;;;;5054669;28;20471;-73
2022/10/05 13:40:56;;;;;;;5.00;1.80;;;;;;;;;;5036827;28;20017;-73
2022/10/05 13:43:42;;;;;;;3.33;1.98;;;;;;;;;;5054884;28;20112;-73
2022/10/05 13:46:18;;;;;;;4.72;2.20;;;;;;;;;;5054756;28;20036;-73
2022/10/05 13:48:45;;;;;;;11.82;3.65;;;;;;;;;;5054823;28;20037;-73
2022/10/05 13:51:10;;;;;;;5.88;3.22;;;;;;;;;;5054784;28;20029;-73
2022/10/05 13:53:35;;;;;;;2.35;2.15;;;;;;;;;;5054423;28;20051;-72
2022/10/05 13:56:17;;;;;;;2.88;2.00;;;;;;;;;;5053485;28;20028;-73
2022/10/05 13:59:15;;;;;;;1.95;1.85;;;;;;;;;;5073791;22;20056;-69
2022/10/05 14:01:41;;;;;;;1.90;1.67;;;;;;;;;;4991133;28;20096;-69
2022/10/05 14:04:18;;;;;;;2.35;1.83;;;;;;;;;;4993004;28;20420;-70
2022/10/05 14:06:44;;;;;;;2.08;1.88;;;;;;;;;;4993141;28;20038;-69
2022/10/05 14:09:11;;;;;;;3.55;3.00;;;;;;;;;;4993079;28;20029;-70
2022/10/05 14:11:46;;;;;;;4.90;3.05;;;;;;;;;;4975737;28;20081;-73
2022/10/05 14:14:13;;;;;;;4.22;3.35;;;;;;;;;;4993826;28;20030;-73
2022/10/05 14:16:56;;;;;;;3.08;2.42;;;;;;;;;;4994205;28;20033;-73
2022/10/05 14:19:32;;;;;;;2.75;2.38;;;;;;;;;;4993195;28;20041;-73
2022/10/05 14:22:00;;;;;;;2.50;2.30;;;;;;;;;;4976999;28;20030;-73
2022/10/05 14:24:29;;;;;;;2.88;1.77;;;;;;;;;;4994526;28;20026;-73
2022/10/05 14:26:56;;;;;;;3.03;1.87;;;;;;;;;;4994733;28;20030;-72
2022/10/05 14:29:33;;;;;;;2.45;1.88;;;;;;;;;;4994524;28;20465;-73
2022/10/05 14:32:11;;;;;;;4.18;1.80;;;;;;;;;;4994551;28;20113;-73
2022/10/05 14:34:41;;;;;;;2.15;2.05;;;;;;;;;;4994702;28;20033;-73
2022/10/05 14:37:18;;;;;;;4.28;1.88;;;;;;;;;;4994774;28;20129;-72
2022/10/05 14:39:44;;;;;;;2.50;1.90;;;;;;;;;;4995007;28;20022;-73
2022/10/05 14:42:21;;;;;;;5.93;2.15;;;;;;;;;;4994180;28;20022;-73
2022/10/05 14:45:00;;;;;;;3.50;2.05;;;;;;;;;;4994621;28;20038;-72
2022/10/05 14:47:29;;;;;;;3.47;2.55;;;;;;;;;;4994876;28;20045;-73
2022/10/05 14:50:15;;;;;;;2.22;2.03;;;;;;;;;;4994555;28;20015;-73
2022/10/05 14:52:46;;;;;;;2.40;2.20;;;;;;;;;;4994254;28;20120;-74
2022/10/05 14:55:16;;;;;;;4.65;2.20;;;;;;;;;;4994438;28;20026;-73
2022/10/05 14:57:49;;;;;;;3.72;2.22;;;;;;;;;;4994244;28;20027;-73
2022/10/05 15:00:15;;;;;;;2.75;2.10;;;;;;;;;;4994230;28;20044;-73
2022/10/05 15:02:47;;;;;;;3.38;1.95;;;;;;;;;;4994462;28;20031;-73
2022/10/05 15:05:31;;;;;;;3.75;1.77;;;;;;;;;;4994636;28;20121;-72
2022/10/05 15:08:15;;;;;;;2.00;1.80;;;;;;;;;;4993236;28;20105;-73
2022/10/05 15:10:48;;;;;;;2.28;2.03;;;;;;;;;;4994692;28;20042;-73
2022/10/05 15:13:16;;;;;;;2.25;1.77;;;;;;;;;;4994657;28;20034;-73
2022/10/05 15:15:55;;;;;;;3.25;2.17;;;;;;;;;;4994017;28;20100;-73
2022/10/05 15:18:42;;;;;;;2.60;2.40;;;;;;;;;;4994149;28;20533;-73
2022/10/05 15:21:25;;;;;;;4.32;1.95;;;;;;;;;;4994286;28;20077;-73